Time;durP1;ratioP1;P1;durP2;ratioP2;P2;SDS_P1;SDS_P2;PMS_P1;PMS_P2;Temp;Humidity;BMP_temperature;BMP_pressure;BME280_temperature;BME280_humidity;BME280_pressure;Samples;Min_cycle;Max_cycle;Signal;HPM_P1;HPM_P2
2022/03/01 00:01:20;;;;;;;5.30;2.55;;;;;;;20.05;29.75;102163.84;4997761;28;20037;-75
2022/03/01 00:03:46;;;;;;;5.50;2.25;;;;;;;20.06;30.53;102162.78;4997206;28;20023;-75
2022/03/01 00:06:12;;;;;;;6.22;2.22;;;;;;;20.17;29.96;102159.22;4993993;28;20037;-75
2022/03/01 00:08:39;;;;;;;5.55;2.10;;;;;;;20.20;29.58;102153.31;4990642;28;20033;-74
2022/03/01 00:11:05;;;;;;;5.45;1.95;;;;;;;20.14;30.31;102156.97;4995477;28;20028;-73
2022/03/01 00:13:31;;;;;;;6.90;2.15;;;;;;;20.24;29.78;102150.94;4995520;28;20101;-73
2022/03/01 00:15:57;;;;;;;4.93;1.95;;;;;;;20.13;31.16;102149.06;4995603;28;20031;-76
2022/03/01 00:18:23;;;;;;;4.82;1.85;;;;;;;20.02;31.71;102148.84;4995671;28;20062;-76
2022/03/01 00:20:49;;;;;;;3.40;1.75;;;;;;;20.07;29.25;102150.84;4993343;28;20046;-77
2022/03/01 00:23:16;;;;;;;5.13;1.92;;;;;;;20.17;28.68;102142.09;5002293;28;20027;-75
2022/03/01 00:25:42;;;;;;;2.88;1.67;;;;;;;20.27;28.49;102143.16;4991735;28;20356;-74
2022/03/01 00:28:08;;;;;;;4.45;1.48;;;;;;;20.23;30.05;102146.56;4995921;28;20421;-75
2022/03/01 00:30:34;;;;;;;6.40;2.10;;;;;;;20.23;28.64;102144.69;4992871;28;20396;-74
2022/03/01 00:33:00;;;;;;;5.75;1.80;;;;;;;20.26;27.76;102146.91;4993433;28;20027;-78
2022/03/01 00:35:26;;;;;;;2.90;1.05;;;;;;;20.42;25.53;102134.47;4995069;28;20023;-73
2022/03/01 00:37:53;;;;;;;1.30;1.10;;;;;;;20.56;24.83;102137.78;4993541;28;20038;-74
2022/03/01 00:40:19;;;;;;;2.05;1.00;;;;;;;20.49;26.58;102139.81;4993760;28;20499;-73
2022/03/01 00:42:45;;;;;;;2.13;0.80;;;;;;;20.43;25.06;102129.84;4994456;28;20121;-73
2022/03/01 00:45:11;;;;;;;1.33;0.82;;;;;;;20.36;24.47;102123.72;4995398;28;20026;-73
2022/03/01 00:47:37;;;;;;;3.20;1.23;;;;;;;20.13;25.49;102125.44;4995085;28;20080;-73
2022/03/01 00:50:04;;;;;;;2.80;1.05;;;;;;;20.07;26.33;102117.41;4992639;28;20033;-73
2022/03/01 00:52:30;;;;;;;3.40;1.40;;;;;;;20.12;26.17;102125.69;4994349;28;20097;-72
2022/03/01 00:54:56;;;;;;;2.08;1.20;;;;;;;20.11;26.84;102119.41;4994943;28;20023;-71
2022/03/01 00:57:22;;;;;;;4.10;1.30;;;;;;;20.01;28.76;102117.28;4994934;28;20030;-73
2022/03/01 00:59:49;;;;;;;4.93;1.40;;;;;;;19.89;28.38;102121.09;4993308;28;20030;-71
2022/03/01 01:02:15;;;;;;;3.17;1.33;;;;;;;19.76;28.31;102117.53;4992550;28;20125;-73
2022/03/01 01:05:01;;;;;;;2.97;1.40;;;;;;;19.62;28.92;102118.00;4995532;28;20027;-73
2022/03/01 01:07:27;;;;;;;2.60;1.40;;;;;;;19.57;29.68;102118.69;4952400;28;20073;-73
2022/03/01 01:09:53;;;;;;;7.82;1.90;;;;;;;19.55;30.49;102118.09;4951943;28;20057;-74
2022/03/01 01:12:20;;;;;;;5.63;1.70;;;;;;;19.46;31.03;102109.47;4936706;29;20377;-73
2022/03/01 01:14:46;;;;;;;6.07;1.80;;;;;;;19.41;31.92;102116.66;4953325;28;20070;-79
2022/03/01 01:17:12;;;;;;;3.70;1.63;;;;;;;19.34;31.07;102124.91;4939174;29;20027;-79
2022/03/01 01:19:38;;;;;;;4.25;1.48;;;;;;;19.29;31.53;102121.25;4954132;29;20499;-79
2022/03/01 01:24:49;;;;;;;6.07;1.60;;;;;;;19.18;30.60;102125.56;4953634;28;20119;-79
2022/03/01 01:27:15;;;;;;;4.10;1.27;;;;;;;19.15;30.71;102123.31;4953287;29;20114;-79
2022/03/01 01:29:41;;;;;;;3.95;1.20;;;;;;;18.99;32.23;102130.25;4954399;29;20039;-79
2022/03/01 01:32:08;;;;;;;3.08;0.95;;;;;;;18.79;31.24;102130.50;4949132;29;20102;-79
2022/03/01 01:34:34;;;;;;;3.95;1.30;;;;;;;18.71;31.61;102128.97;4952321;28;20054;-79
2022/03/01 01:37:00;;;;;;;2.88;1.08;;;;;;;18.57;31.73;102132.03;4949796;28;20339;-73
2022/03/01 01:39:27;;;;;;;3.40;1.13;;;;;;;18.46;32.05;102136.31;4951906;28;20109;-73
2022/03/01 01:41:53;;;;;;;1.83;0.82;;;;;;;18.32;31.86;102129.38;4933940;29;20075;-73
2022/03/01 01:44:19;;;;;;;2.63;1.17;;;;;;;18.20;32.79;102126.59;4969489;28;20034;-74
2022/03/01 01:46:45;;;;;;;4.15;1.20;;;;;;;18.11;33.36;102128.81;4992199;28;20037;-73
2022/03/01 01:49:12;;;;;;;2.30;1.20;;;;;;;17.89;33.37;102124.88;4990366;28;20034;-73
2022/03/01 01:51:38;;;;;;;3.58;1.10;;;;;;;17.61;33.96;102128.00;4992763;28;20113;-73
2022/03/01 01:54:06;;;;;;;2.35;1.00;;;;;;;17.72;33.95;102130.03;4996666;28;20081;-72
2022/03/01 01:56:32;;;;;;;3.40;1.17;;;;;;;17.60;34.24;102131.75;4993775;28;20029;-78
2022/03/01 01:58:58;;;;;;;3.33;1.25;;;;;;;17.47;35.20;102140.81;5002658;28;20045;-78
2022/03/01 02:01:25;;;;;;;3.50;1.75;;;;;;;17.34;35.99;102141.75;4994118;28;20108;-78
2022/03/01 02:03:51;;;;;;;3.67;1.60;;;;;;;17.14;37.24;102135.63;4995492;28;20408;-78
2022/03/01 02:06:17;;;;;;;4.82;1.27;;;;;;;16.98;38.55;102150.50;4994740;28;20041;-78
2022/03/01 02:08:43;;;;;;;3.60;1.58;;;;;;;16.90;38.36;102148.06;4993926;28;20038;-78
2022/03/01 02:11:09;;;;;;;5.20;1.48;;;;;;;16.75;38.60;102150.19;4992524;28;20038;-78
2022/03/01 02:13:35;;;;;;;4.60;1.58;;;;;;;16.65;39.02;102161.44;4993243;28;20461;-78
2022/03/01 02:16:02;;;;;;;2.30;1.42;;;;;;;16.32;40.34;102166.94;4991730;28;20444;-73
2022/03/01 02:18:28;;;;;;;3.63;1.40;;;;;;;16.27;39.85;102180.28;4991771;28;20069;-72
2022/03/01 02:20:54;;;;;;;4.82;1.58;;;;;;;16.15;40.39;102179.25;4992671;28;20026;-73
2022/03/01 02:23:20;;;;;;;2.25;1.45;;;;;;;16.03;40.88;102182.59;4993242;28;20037;-74
2022/03/01 02:25:46;;;;;;;4.07;1.60;;;;;;;15.95;40.95;102190.09;4993683;28;20101;-73
2022/03/01 02:28:13;;;;;;;3.28;1.92;;;;;;;15.73;41.13;102192.16;4990737;28;20034;-74
2022/03/01 02:30:39;;;;;;;3.67;2.13;;;;;;;15.56;41.25;102191.72;4993525;28;20482;-73
2022/03/01 02:33:05;;;;;;;3.30;2.20;;;;;;;15.40;42.06;102195.63;4989668;28;20072;-73
2022/03/01 02:35:31;;;;;;;4.68;2.03;;;;;;;15.44;41.78;102194.19;4993165;28;20023;-79
2022/03/01 02:37:57;;;;;;;7.63;2.00;;;;;;;15.30;41.86;102205.97;4996705;28;20027;-78
2022/03/01 02:40:24;;;;;;;6.43;1.83;;;;;;;15.18;41.92;102208.44;5001504;28;20038;-78
2022/03/01 02:42:50;;;;;;;3.45;1.95;;;;;;;14.96;42.29;102217.69;4997824;28;20022;-78
2022/03/01 02:45:18;;;;;;;2.42;1.30;;;;;;;14.62;42.21;102218.59;4999959;28;20050;-78
2022/03/01 02:47:44;;;;;;;2.20;1.02;;;;;;;14.69;42.22;102220.28;5000146;28;20045;-78
2022/03/01 02:50:12;;;;;;;1.90;1.08;;;;;;;14.61;42.48;102212.38;4999613;28;20039;-78
2022/03/01 02:52:39;;;;;;;4.00;1.20;;;;;;;14.35;42.68;102215.69;4998961;28;20038;-78
2022/03/01 02:55:07;;;;;;;1.52;1.10;;;;;;;14.38;43.40;102218.00;4998647;28;20326;-73
2022/03/01 02:57:33;;;;;;;3.47;1.05;;;;;;;14.30;43.25;102220.84;4999335;28;20040;-73
2022/03/01 02:59:59;;;;;;;3.25;1.10;;;;;;;14.23;43.70;102230.75;4998762;28;20077;-72
2022/03/01 03:02:25;;;;;;;2.78;1.42;;;;;;;14.09;43.06;102213.63;5000794;28;20041;-72
2022/03/01 03:04:51;;;;;;;2.20;1.23;;;;;;;14.02;43.63;102228.09;4998939;28;20122;-72
2022/03/01 03:07:18;;;;;;;4.47;1.25;;;;;;;13.91;43.73;102222.19;4996598;28;20026;-72
2022/03/01 03:09:44;;;;;;;2.72;1.60;;;;;;;13.84;43.39;102215.09;4998380;28;20053;-73
2022/03/01 03:12:10;;;;;;;4.15;1.52;;;;;;;13.67;43.43;102215.38;4998212;28;20133;-73
2022/03/01 03:14:37;;;;;;;2.90;1.27;;;;;;;13.61;43.41;102215.31;4999528;28;20034;-72
2022/03/01 03:17:04;;;;;;;2.15;1.17;;;;;;;13.56;42.25;102213.19;5000100;28;20034;-78
2022/03/01 03:19:30;;;;;;;2.13;1.05;;;;;;;13.47;41.87;102209.78;4999033;28;20034;-78
2022/03/01 03:21:56;;;;;;;3.03;1.20;;;;;;;13.42;41.81;102209.53;5000189;28;20018;-78
2022/03/01 03:24:22;;;;;;;2.05;0.90;;;;;;;13.30;41.84;102221.81;5000445;28;20072;-78
2022/03/01 03:26:48;;;;;;;1.65;0.90;;;;;;;13.27;40.99;102218.66;5006903;28;20349;-78
2022/03/01 03:29:15;;;;;;;2.35;0.88;;;;;;;13.12;41.10;102216.00;4999614;28;20026;-77
2022/03/01 03:31:43;;;;;;;1.65;0.70;;;;;;;13.12;39.21;102216.84;4999523;28;20106;-78
2022/03/01 03:34:10;;;;;;;1.00;0.50;;;;;;;13.00;40.07;102212.16;4998744;28;20468;-78
2022/03/01 03:36:38;;;;;;;1.75;0.50;;;;;;;13.06;38.18;102219.44;5013137;28;20026;-72
2022/03/01 03:39:08;;;;;;;1.90;0.70;;;;;;;13.02;38.00;102220.84;4996983;28;20441;-72
2022/03/01 03:41:35;;;;;;;1.65;0.82;;;;;;;13.02;37.51;102231.59;4997191;28;20066;-72
2022/03/01 03:44:01;;;;;;;1.20;0.50;;;;;;;13.03;38.12;102230.56;4997719;28;20060;-73
2022/03/01 03:46:28;;;;;;;4.03;0.50;;;;;;;13.03;38.50;102233.25;4998784;28;20045;-72
2022/03/01 03:48:55;;;;;;;0.95;0.50;;;;;;;13.03;38.61;102238.63;4995492;28;20038;-72
2022/03/01 03:51:23;;;;;;;2.45;0.98;;;;;;;12.97;38.56;102239.38;4996480;28;20409;-72
2022/03/01 03:53:50;;;;;;;1.77;0.73;;;;;;;12.97;39.21;102237.53;5002043;28;20038;-73
2022/03/01 03:56:16;;;;;;;1.75;0.73;;;;;;;12.92;39.51;102234.56;4995304;28;20037;-78
2022/03/01 03:58:42;;;;;;;1.40;0.77;;;;;;;12.88;39.96;102242.19;4996225;28;20030;-77
2022/03/01 04:01:09;;;;;;;1.63;0.80;;;;;;;12.85;39.79;102239.03;4996551;28;20112;-78
2022/03/01 04:03:35;;;;;;;3.00;1.30;;;;;;;12.73;40.34;102238.66;5003424;28;20441;-78
2022/03/01 04:06:01;;;;;;;5.00;1.40;;;;;;;12.63;40.42;102240.78;4995691;28;20034;-78
2022/03/01 04:08:27;;;;;;;1.77;1.15;;;;;;;12.65;39.82;102238.75;4996514;28;20026;-78
2022/03/01 04:10:56;;;;;;;2.25;1.20;;;;;;;12.56;40.56;102235.34;4996158;28;20069;-78
2022/03/01 04:13:24;;;;;;;1.10;0.98;;;;;;;12.53;39.92;102240.22;4995690;28;20037;-79
2022/03/01 04:15:50;;;;;;;1.75;1.02;;;;;;;12.47;40.33;102238.28;4995144;28;20434;-74
2022/03/01 04:18:17;;;;;;;1.83;0.90;;;;;;;12.40;39.39;102244.41;4994967;28;20172;-73
2022/03/01 04:20:44;;;;;;;0.98;0.60;;;;;;;12.40;39.02;102236.34;4996293;28;20030;-73
2022/03/01 04:23:10;;;;;;;1.33;0.55;;;;;;;12.37;38.96;102244.75;4997388;28;20109;-75
2022/03/01 04:25:37;;;;;;;1.00;0.60;;;;;;;12.34;38.45;102245.13;4996018;28;20085;-74
2022/03/01 04:28:03;;;;;;;1.30;0.50;;;;;;;12.34;38.98;102255.88;4995480;28;20495;-74
2022/03/01 04:30:29;;;;;;;1.35;0.63;;;;;;;12.28;39.74;102261.97;4995015;28;20455;-74
2022/03/01 04:32:56;;;;;;;2.20;0.90;;;;;;;12.23;42.03;102261.69;4994657;28;20165;-76
2022/03/01 04:35:22;;;;;;;1.02;0.60;;;;;;;12.13;41.20;102266.47;4994752;28;20026;-75
2022/03/01 04:37:48;;;;;;;1.60;0.80;;;;;;;12.06;40.87;102262.84;4995573;28;21237;-73
2022/03/01 04:40:16;;;;;;;6.75;3.47;;;;;;;12.01;41.47;102266.06;4994329;28;20506;-74
2022/03/01 04:42:43;;;;;;;3.80;2.60;;;;;;;11.93;41.37;102266.13;4995163;28;20026;-74
2022/03/01 04:45:11;;;;;;;3.13;2.10;;;;;;;11.89;41.72;102270.22;4994671;28;20027;-74
2022/03/01 04:47:38;;;;;;;3.83;1.40;;;;;;;11.84;41.90;102269.91;4993560;28;20084;-73
2022/03/01 04:50:06;;;;;;;4.38;1.17;;;;;;;11.78;42.25;102276.78;5009988;28;20034;-74
2022/03/01 04:52:32;;;;;;;3.65;1.17;;;;;;;11.72;42.74;102279.38;4995197;28;20120;-74
2022/03/01 04:54:58;;;;;;;1.98;0.85;;;;;;;11.59;44.34;102282.59;4995184;28;20110;-77
2022/03/01 04:57:24;;;;;;;2.88;1.13;;;;;;;11.53;44.04;102291.38;5013215;28;20038;-79
2022/03/01 04:59:50;;;;;;;3.20;1.10;;;;;;;11.43;43.71;102293.44;4996292;28;20049;-78
2022/03/01 05:02:16;;;;;;;2.83;1.20;;;;;;;11.36;43.92;102298.66;4997235;28;20034;-78
2022/03/01 05:04:43;;;;;;;1.73;0.95;;;;;;;11.28;44.24;102301.41;5015082;28;20031;-78
2022/03/01 05:07:09;;;;;;;2.40;1.10;;;;;;;11.19;44.58;102307.78;4994268;28;20034;-78
2022/03/01 05:09:35;;;;;;;2.53;1.30;;;;;;;11.12;45.30;102307.66;4997106;28;20033;-78
2022/03/01 05:12:01;;;;;;;1.73;1.20;;;;;;;11.03;45.95;102319.41;4995150;28;20022;-78
2022/03/01 05:14:27;;;;;;;3.40;1.17;;;;;;;10.92;46.81;102323.28;4994072;28;20034;-78
2022/03/01 05:16:54;;;;;;;2.80;1.35;;;;;;;10.91;46.40;102331.50;4994434;28;20026;-74
2022/03/01 05:19:20;;;;;;;3.35;1.48;;;;;;;10.85;46.56;102330.34;4994729;28;20034;-73
2022/03/01 05:21:46;;;;;;;3.08;1.77;;;;;;;10.79;46.56;102337.22;4994486;28;20026;-73
2022/03/01 05:24:12;;;;;;;3.95;1.75;;;;;;;10.79;47.43;102333.72;4994390;28;20031;-73
2022/03/01 05:26:38;;;;;;;4.68;2.20;;;;;;;10.71;47.29;102337.22;4992647;28;20392;-73
2022/03/01 05:29:07;;;;;;;2.95;1.90;;;;;;;10.69;47.33;102330.38;4992893;28;20122;-72
2022/03/01 05:31:34;;;;;;;5.55;2.35;;;;;;;10.60;47.64;102329.56;4993642;28;20038;-74
2022/03/01 05:34:00;;;;;;;4.65;1.98;;;;;;;10.50;47.28;102337.78;4993175;28;20041;-72
2022/03/01 05:36:26;;;;;;;4.75;1.90;;;;;;;10.49;47.70;102348.63;4994124;28;20022;-73
2022/03/01 05:38:52;;;;;;;3.13;1.77;;;;;;;10.45;47.57;102352.69;5007142;28;20026;-73
2022/03/01 05:41:20;;;;;;;2.85;1.50;;;;;;;10.39;48.36;102358.72;4993128;28;20420;-72
2022/03/01 05:43:46;;;;;;;3.70;1.52;;;;;;;10.32;48.09;102356.66;5004981;28;20060;-73
2022/03/01 05:46:12;;;;;;;4.97;1.50;;;;;;;10.27;48.45;102359.03;4991976;28;20022;-73
2022/03/01 05:48:38;;;;;;;2.55;1.42;;;;;;;10.16;48.97;102370.03;4993582;28;20057;-73
2022/03/01 05:51:06;;;;;;;2.08;1.23;;;;;;;10.07;49.95;102376.38;4993065;28;20033;-73
2022/03/01 05:53:33;;;;;;;2.58;1.25;;;;;;;10.04;50.37;102379.38;4993457;28;20484;-73
2022/03/01 05:55:59;;;;;;;2.38;1.30;;;;;;;9.72;51.20;102375.63;4993740;28;20462;-73
2022/03/01 05:58:25;;;;;;;4.20;0.77;;;;;;;9.86;50.68;102362.63;4992802;28;20088;-72
2022/03/01 06:00:51;;;;;;;2.15;0.80;;;;;;;9.91;50.77;102368.31;4992391;28;20444;-73
2022/03/01 06:03:17;;;;;;;2.00;0.93;;;;;;;9.89;50.83;102375.69;4992463;28;20089;-73
2022/03/01 06:05:43;;;;;;;5.35;1.27;;;;;;;9.92;50.94;102378.00;4992944;28;20547;-73
2022/03/01 06:08:09;;;;;;;3.10;0.98;;;;;;;9.82;50.71;102374.63;4994755;28;20117;-73
2022/03/01 06:10:36;;;;;;;1.45;0.95;;;;;;;9.77;50.58;102370.63;4995068;28;20065;-72
2022/03/01 06:13:02;;;;;;;3.22;0.90;;;;;;;9.74;50.68;102370.13;4998905;28;20421;-73
2022/03/01 06:15:28;;;;;;;1.80;0.90;;;;;;;9.70;50.69;102374.94;4998747;28;20096;-78
2022/03/01 06:17:54;;;;;;;4.55;1.42;;;;;;;9.67;51.30;102379.81;4992992;28;20073;-78
2022/03/01 06:20:20;;;;;;;1.92;1.25;;;;;;;9.64;51.73;102386.28;5000664;28;20125;-78
2022/03/01 06:22:47;;;;;;;1.80;1.00;;;;;;;9.53;51.76;102378.56;4994456;28;20088;-78
2022/03/01 06:25:13;;;;;;;1.83;0.90;;;;;;;9.19;53.60;102387.44;5005215;28;20039;-78
2022/03/01 06:27:40;;;;;;;2.40;1.10;;;;;;;9.18;53.40;102384.94;4994947;28;20065;-78
2022/03/01 06:30:07;;;;;;;1.10;0.60;;;;;;;9.12;53.55;102390.91;4996655;28;20030;-78
2022/03/01 06:32:34;;;;;;;1.25;0.88;;;;;;;9.21;53.69;102389.94;4993775;28;20065;-78
2022/03/01 06:35:00;;;;;;;2.03;1.05;;;;;;;9.21;54.00;102392.59;4994119;28;20029;-77
2022/03/01 06:37:26;;;;;;;4.88;0.90;;;;;;;9.17;53.84;102400.13;4999096;28;20034;-72
2022/03/01 06:39:53;;;;;;;3.70;0.90;;;;;;;9.22;54.81;102392.47;4992169;28;20030;-72
2022/03/01 06:42:20;;;;;;;0.93;0.82;;;;;;;9.18;55.13;102395.63;5001238;28;20034;-73
2022/03/01 06:44:46;;;;;;;3.10;0.98;;;;;;;9.16;55.55;102390.44;4992719;28;20034;-72
2022/03/01 06:47:12;;;;;;;2.05;0.82;;;;;;;9.17;55.96;102389.44;4989512;28;20133;-73
2022/03/01 06:49:39;;;;;;;1.73;1.17;;;;;;;9.15;55.87;102393.25;4993496;28;20034;-72
2022/03/01 06:52:05;;;;;;;3.15;1.38;;;;;;;9.10;56.73;102391.03;4990543;28;20459;-72
2022/03/01 06:54:32;;;;;;;1.90;0.93;;;;;;;8.90;57.40;102381.59;4990465;28;20038;-74
2022/03/01 06:56:58;;;;;;;2.20;1.00;;;;;;;9.02;57.25;102384.84;4992357;28;20026;-71
2022/03/01 06:59:26;;;;;;;4.53;0.95;;;;;;;8.95;57.96;102384.63;4992663;28;20034;-71
2022/03/01 07:01:54;;;;;;;2.15;1.10;;;;;;;8.68;59.72;102374.94;4992219;28;20065;-71
2022/03/01 07:04:20;;;;;;;2.00;0.82;;;;;;;8.66;60.20;102379.56;4992611;28;20475;-72
2022/03/01 07:06:46;;;;;;;1.13;0.73;;;;;;;8.62;60.26;102378.22;4993374;28;20026;-72
2022/03/01 07:09:12;;;;;;;3.90;1.13;;;;;;;8.18;63.87;102389.66;4991846;28;20030;-72
2022/03/01 07:11:38;;;;;;;1.67;0.90;;;;;;;8.47;61.79;102383.28;4992938;28;20129;-72
2022/03/01 07:14:04;;;;;;;4.22;1.17;;;;;;;8.51;62.01;102381.16;4992350;28;20375;-73
2022/03/01 07:16:31;;;;;;;3.17;1.20;;;;;;;8.53;61.78;102380.00;4990673;28;20030;-71
2022/03/01 07:18:59;;;;;;;1.00;0.82;;;;;;;8.61;61.77;102374.72;4990818;28;20037;-71
2022/03/01 07:21:26;;;;;;;2.70;1.30;;;;;;;8.56;61.40;102384.19;4991311;28;20030;-71
2022/03/01 07:23:52;;;;;;;1.80;1.00;;;;;;;8.59;61.93;102373.19;4993768;28;20457;-72
2022/03/01 07:26:18;;;;;;;2.05;0.95;;;;;;;8.54;62.76;102370.16;4995134;28;20038;-72
2022/03/01 07:28:44;;;;;;;3.03;1.10;;;;;;;8.55;62.38;102369.16;4996079;28;20045;-71
2022/03/01 07:31:10;;;;;;;2.22;1.10;;;;;;;8.54;62.53;102365.66;4994826;28;20035;-71
2022/03/01 07:33:38;;;;;;;2.17;0.95;;;;;;;8.49;62.77;102362.59;4994438;28;20548;-72
2022/03/01 07:36:05;;;;;;;1.65;0.80;;;;;;;8.47;63.08;102367.28;4995511;28;20120;-77
2022/03/01 07:38:31;;;;;;;1.80;1.15;;;;;;;8.46;64.60;102362.94;4997314;28;20026;-75
2022/03/01 07:40:57;;;;;;;1.95;0.98;;;;;;;8.17;68.06;102368.50;4996472;28;20030;-77
2022/03/01 07:43:23;;;;;;;3.15;1.35;;;;;;;8.02;69.92;102378.84;4997701;28;20449;-75
2022/03/01 07:45:49;;;;;;;2.47;1.10;;;;;;;8.08;70.24;102369.41;4997277;28;20031;-74
2022/03/01 07:48:15;;;;;;;3.15;1.13;;;;;;;8.28;68.89;102367.44;4995222;28;20030;-74
2022/03/01 07:50:42;;;;;;;2.25;0.90;;;;;;;8.38;68.08;102376.19;4996941;28;20034;-74
2022/03/01 07:53:08;;;;;;;3.55;1.30;;;;;;;8.39;68.01;102373.38;4996372;28;20030;-75
2022/03/01 07:55:34;;;;;;;2.95;1.02;;;;;;;8.37;68.98;102372.69;5004516;28;20445;-74
2022/03/01 07:58:00;;;;;;;1.80;0.80;;;;;;;8.42;70.93;102372.22;4994433;28;20365;-74
2022/03/01 08:00:27;;;;;;;2.03;0.90;;;;;;;8.52;71.65;102366.81;4998827;28;20030;-74
2022/03/01 08:02:53;;;;;;;1.55;0.63;;;;;;;8.49;72.71;102373.28;5011066;28;20022;-75
2022/03/01 08:05:20;;;;;;;1.13;0.70;;;;;;;8.49;72.45;102373.28;5013269;28;20032;-75
2022/03/01 08:07:46;;;;;;;2.60;0.77;;;;;;;8.53;72.92;102374.66;5012627;28;20038;-76
2022/03/01 08:10:12;;;;;;;2.92;1.08;;;;;;;8.53;73.22;102371.16;5011021;28;20034;-75
2022/03/01 08:12:39;;;;;;;2.45;0.60;;;;;;;8.57;74.55;102375.19;5003033;28;20030;-75
2022/03/01 08:15:05;;;;;;;1.95;0.75;;;;;;;8.35;76.68;102371.16;4995814;28;20023;-75
2022/03/01 08:17:32;;;;;;;3.83;0.95;;;;;;;8.53;77.77;102363.97;4994982;28;20036;-70
2022/03/01 08:19:58;;;;;;;2.97;0.70;;;;;;;8.61;75.83;102368.56;4995366;28;20031;-71
2022/03/01 08:22:24;;;;;;;1.17;0.60;;;;;;;8.60;75.02;102367.69;4995076;28;20121;-71
2022/03/01 08:24:50;;;;;;;2.38;0.77;;;;;;;8.60;74.46;102375.69;4996203;28;20033;-70
2022/03/01 08:27:17;;;;;;;1.00;0.70;;;;;;;8.61;74.67;102369.41;4992579;28;20121;-71
2022/03/01 08:29:43;;;;;;;1.85;0.82;;;;;;;8.61;74.04;102365.88;4994422;28;20033;-70
2022/03/01 08:32:10;;;;;;;1.90;0.85;;;;;;;8.57;74.16;102368.03;4995042;28;20030;-71
2022/03/01 08:34:36;;;;;;;2.10;1.00;;;;;;;8.54;74.50;102365.66;4993421;28;20034;-70
2022/03/01 08:37:02;;;;;;;2.55;1.38;;;;;;;8.55;74.69;102366.47;4995629;28;20057;-75
2022/03/01 08:39:28;;;;;;;3.53;2.40;;;;;;;8.52;75.23;102372.97;4994979;28;20038;-75
2022/03/01 08:41:55;;;;;;;4.75;2.65;;;;;;;8.44;74.38;102360.44;4995701;28;20045;-74
2022/03/01 08:44:22;;;;;;;6.45;3.85;;;;;;;8.48;74.29;102368.09;4995985;28;20026;-74
2022/03/01 08:46:48;;;;;;;9.05;4.63;;;;;;;8.43;74.65;102363.22;4995397;28;20022;-74
2022/03/01 08:49:15;;;;;;;7.60;4.65;;;;;;;8.40;74.37;102366.22;4995498;28;20045;-74
2022/03/01 08:51:41;;;;;;;9.05;5.97;;;;;;;8.36;75.07;102362.19;4995103;28;20188;-73
2022/03/01 08:54:07;;;;;;;8.88;5.82;;;;;;;8.35;74.53;102371.16;4995577;28;20034;-74
2022/03/01 08:56:33;;;;;;;10.95;6.25;;;;;;;8.33;74.45;102367.78;4999841;28;20042;-72
2022/03/01 08:59:00;;;;;;;10.98;6.32;;;;;;;8.33;75.10;102368.63;4993169;28;20030;-72
2022/03/01 09:01:26;;;;;;;9.82;5.82;;;;;;;8.32;75.71;102360.75;4992853;28;20479;-72
2022/03/01 09:03:53;;;;;;;7.70;5.03;;;;;;;8.31;76.17;102365.28;4993466;28;20026;-72
2022/03/01 09:06:20;;;;;;;9.35;5.40;;;;;;;8.32;75.79;102360.75;4994699;28;20038;-71
2022/03/01 09:08:46;;;;;;;8.75;5.30;;;;;;;8.28;76.23;102362.94;4992434;28;20042;-72
2022/03/01 09:11:13;;;;;;;5.40;3.38;;;;;;;8.24;76.64;102358.03;5007667;28;20026;-71
2022/03/01 09:13:39;;;;;;;4.60;3.03;;;;;;;8.24;77.07;102363.38;4993202;28;20104;-70
2022/03/01 09:16:07;;;;;;;6.45;3.00;;;;;;;8.14;76.73;102364.28;4992730;28;20026;-71
2022/03/01 09:18:34;;;;;;;6.03;3.72;;;;;;;7.99;79.87;102367.63;4994077;28;20026;-71
2022/03/01 09:21:01;;;;;;;5.90;3.25;;;;;;;8.29;80.72;102366.44;4993171;28;20034;-70
2022/03/01 09:23:27;;;;;;;5.28;3.63;;;;;;;8.22;78.72;102366.22;5008834;28;20479;-70
2022/03/01 09:25:54;;;;;;;6.07;3.20;;;;;;;8.01;79.22;102353.19;4994369;28;20125;-70
2022/03/01 09:28:20;;;;;;;4.82;2.80;;;;;;;8.11;77.77;102351.28;4992986;28;20037;-70
2022/03/01 09:30:46;;;;;;;5.22;2.70;;;;;;;7.87;79.19;102349.19;4992669;28;20041;-70
2022/03/01 09:33:12;;;;;;;4.25;2.63;;;;;;;8.04;78.61;102347.53;4992701;28;20037;-70
2022/03/01 09:35:39;;;;;;;3.53;2.17;;;;;;;8.03;78.21;102339.69;4993262;28;20105;-71
2022/03/01 09:38:05;;;;;;;3.47;2.08;;;;;;;8.07;77.93;102343.72;4992807;28;20030;-70
2022/03/01 09:40:31;;;;;;;4.07;2.10;;;;;;;8.09;78.12;102341.72;4992778;28;20107;-70
2022/03/01 09:42:58;;;;;;;3.80;1.77;;;;;;;8.06;77.49;102334.06;4993334;28;20064;-70
2022/03/01 09:45:24;;;;;;;3.53;1.80;;;;;;;8.00;77.75;102329.34;4992149;28;20084;-70
2022/03/01 09:47:52;;;;;;;3.65;1.77;;;;;;;8.00;77.38;102324.00;4993004;28;20022;-70
2022/03/01 09:50:27;;;;;;;1.73;1.45;;;;;;;7.99;77.59;102323.13;4991821;28;20372;-71
2022/03/01 09:52:55;;;;;;;3.17;1.48;;;;;;;8.00;77.75;102322.16;4996127;28;20031;-71
2022/03/01 09:55:22;;;;;;;1.95;1.00;;;;;;;7.94;77.43;102315.63;4992200;28;20065;-74
2022/03/01 09:57:48;;;;;;;2.65;1.08;;;;;;;7.94;77.22;102314.78;4995634;28;20029;-75
2022/03/01 10:00:14;;;;;;;2.13;1.13;;;;;;;7.89;77.59;102309.91;4995096;28;20534;-75
2022/03/01 10:02:42;;;;;;;1.90;1.15;;;;;;;7.87;77.23;102303.03;4995641;28;20045;-76
2022/03/01 10:05:10;;;;;;;3.22;1.02;;;;;;;7.83;77.80;102296.34;4995204;28;20027;-76
2022/03/01 10:07:42;;;;;;;1.27;1.15;;;;;;;7.81;77.85;102295.66;4995484;28;20057;-75
2022/03/01 10:10:16;;;;;;;3.92;0.98;;;;;;;7.79;78.41;102292.31;4994155;28;20037;-75
2022/03/01 10:12:53;;;;;;;2.85;1.05;;;;;;;7.68;79.50;102296.88;4996681;28;20027;-76
2022/03/01 10:15:27;;;;;;;3.03;1.40;;;;;;;7.75;78.67;102290.94;4994737;28;20169;-71
2022/03/01 10:17:53;;;;;;;2.08;0.98;;;;;;;7.77;78.80;102283.59;4991727;28;20168;-71
2022/03/01 10:20:20;;;;;;;1.75;1.10;;;;;;;7.76;78.94;102281.94;4993657;28;20098;-71
2022/03/01 10:22:49;;;;;;;3.20;1.00;;;;;;;7.75;78.26;102280.25;4993400;28;20074;-71
2022/03/01 10:25:18;;;;;;;2.92;0.98;;;;;;;7.71;77.98;102265.56;4993277;28;20030;-71
2022/03/01 10:27:46;;;;;;;1.80;0.90;;;;;;;7.67;78.24;102270.38;4992693;28;20048;-71
2022/03/01 10:30:22;;;;;;;3.85;1.33;;;;;;;7.65;78.01;102265.19;4992861;28;20026;-71
2022/03/01 10:32:48;;;;;;;1.95;1.00;;;;;;;7.63;78.00;102263.66;4992753;28;20030;-71
2022/03/01 10:35:14;;;;;;;2.58;0.90;;;;;;;7.55;78.04;102258.25;4993263;28;20045;-71
2022/03/01 10:37:41;;;;;;;3.03;1.00;;;;;;;7.53;77.43;102257.56;4991484;28;20022;-71
2022/03/01 10:40:16;;;;;;;1.80;1.20;;;;;;;7.53;78.10;102258.41;4992029;28;20035;-71
2022/03/01 10:42:43;;;;;;;2.67;0.75;;;;;;;7.46;78.44;102246.69;4993221;28;20353;-71
2022/03/01 10:45:10;;;;;;;2.15;1.20;;;;;;;7.49;78.67;102249.03;4991396;28;20428;-71
2022/03/01 10:47:40;;;;;;;4.43;1.00;;;;;;;7.46;79.13;102240.53;4991184;28;20019;-71
2022/03/01 10:50:11;;;;;;;1.45;0.93;;;;;;;7.46;78.72;102240.53;4992084;28;20050;-71
2022/03/01 10:52:39;;;;;;;1.50;0.98;;;;;;;7.44;78.69;102229.16;4992314;28;20026;-71
2022/03/01 10:55:21;;;;;;;2.40;1.42;;;;;;;7.42;78.15;102229.31;4991552;28;20025;-71
2022/03/01 10:57:58;;;;;;;1.40;0.75;;;;;;;7.38;78.39;102225.28;4993617;28;20031;-71
2022/03/01 11:00:24;;;;;;;1.85;0.85;;;;;;;7.33;78.79;102225.75;4995805;28;20026;-71
2022/03/01 11:02:50;;;;;;;2.75;1.15;;;;;;;7.35;78.25;102226.44;4996662;28;20037;-70
2022/03/01 11:05:16;;;;;;;3.53;1.02;;;;;;;7.33;77.99;102228.41;4995470;28;20113;-69
2022/03/01 11:07:47;;;;;;;1.58;0.90;;;;;;;7.30;78.05;102222.53;4995107;28;20030;-70
2022/03/01 11:10:14;;;;;;;2.53;0.93;;;;;;;7.29;78.42;102223.53;4995451;28;20110;-70
2022/03/01 11:12:43;;;;;;;2.65;1.02;;;;;;;7.28;78.02;102222.69;4995284;28;20061;-70
2022/03/01 11:15:51;;;;;;;3.17;0.80;;;;;;;7.31;77.60;102217.06;4995868;28;20026;-70
2022/03/01 11:18:44;;;;;;;1.77;1.15;;;;;;;7.28;77.46;102206.72;4990736;28;20038;-76
2022/03/01 11:21:33;;;;;;;3.63;1.13;;;;;;;7.25;77.54;102203.50;4997308;28;20874;-76
2022/03/01 11:24:00;;;;;;;2.67;1.10;;;;;;;7.20;77.21;102209.28;4937248;29;20124;-76
2022/03/01 11:26:37;;;;;;;2.50;1.10;;;;;;;7.14;77.48;102207.22;4936632;29;20048;-76
2022/03/01 11:29:10;;;;;;;3.90;1.13;;;;;;;7.12;77.24;102217.19;4936602;29;20064;-75
2022/03/01 11:31:36;;;;;;;2.15;0.90;;;;;;;7.09;76.77;102220.97;4937186;29;20126;-75